createdAt,value
2023-05-14T00:05:26.172Z,10.90
2023-05-14T00:15:52.441Z,11.10
2023-05-14T00:26:18.562Z,16.40
2023-05-14T00:36:44.315Z,13.10
2023-05-14T00:47:10.778Z,11.40
2023-05-14T00:57:38.238Z,11.90
2023-05-14T01:08:10.753Z,10.50
2023-05-14T01:18:37.674Z,13.30
2023-05-14T01:29:10.964Z,12.00
2023-05-14T01:39:39.114Z,12.00
2023-05-14T01:50:05.028Z,14.60
2023-05-14T02:00:30.695Z,17.30
2023-05-14T02:10:56.173Z,12.10
2023-05-14T02:21:21.882Z,11.30
2023-05-14T02:31:47.985Z,12.30
2023-05-14T02:42:14.280Z,14.10
2023-05-14T02:52:39.997Z,13.50
2023-05-14T03:03:06.149Z,13.50
2023-05-14T03:13:31.998Z,13.90
2023-05-14T03:23:58.170Z,15.90
2023-05-14T03:34:23.927Z,12.50
2023-05-14T03:44:49.995Z,14.40
2023-05-14T03:55:15.697Z,12.60
2023-05-14T04:05:41.491Z,13.70
2023-05-14T04:16:08.559Z,15.80
2023-05-14T04:26:34.266Z,17.50
2023-05-14T04:36:59.948Z,13.80
2023-05-14T04:47:26.678Z,13.50
2023-05-14T04:57:52.502Z,16.80
2023-05-14T05:08:18.605Z,17.50
2023-05-14T05:18:44.942Z,16.00
2023-05-14T05:39:54.877Z,16.00
2023-05-14T05:50:21.296Z,14.30
2023-05-14T06:00:48.838Z,11.70
2023-05-14T06:11:14.209Z,13.10
2023-05-14T06:21:39.675Z,12.20
2023-05-14T06:32:06.257Z,10.20
2023-05-14T06:42:32.174Z,13.00
2023-05-14T07:03:41.505Z,11.90
2023-05-14T07:14:07.892Z,10.10
2023-05-14T07:24:33.912Z,10.20
2023-05-14T07:34:59.719Z,9.90
2023-05-14T07:45:25.514Z,9.70
2023-05-14T07:55:52.064Z,8.60
2023-05-14T08:06:17.931Z,6.60
2023-05-14T08:16:44.003Z,12.90
2023-05-14T08:27:09.786Z,8.90
2023-05-14T08:37:35.779Z,7.70
2023-05-14T08:48:02.702Z,8.80
2023-05-14T08:58:29.851Z,9.60
2023-05-14T09:08:56.632Z,7.70
2023-05-14T09:19:23.935Z,8.00
2023-05-14T09:29:51.349Z,6.40
2023-05-14T09:40:18.690Z,6.50
2023-05-14T09:50:47.885Z,6.00
2023-05-14T10:01:16.263Z,6.80
2023-05-14T10:11:47.098Z,5.50
2023-05-14T10:22:16.413Z,6.50
2023-05-14T10:32:44.412Z,6.30
2023-05-14T10:43:11.354Z,7.00
2023-05-14T10:53:39.273Z,5.00
2023-05-14T11:04:06.629Z,4.10
2023-05-14T11:14:33.035Z,4.50
2023-05-14T11:24:59.219Z,3.60
2023-05-14T11:35:33.794Z,3.10
2023-05-14T11:45:59.910Z,4.00
2023-05-14T11:56:26.085Z,4.70
2023-05-14T12:06:53.341Z,3.20
2023-05-14T12:17:20.346Z,4.00
2023-05-14T12:27:47.270Z,6.20
2023-05-14T12:38:13.414Z,3.70
2023-05-14T12:48:39.332Z,4.20
2023-05-14T12:59:05.207Z,4.00
2023-05-14T13:09:31.306Z,2.00
2023-05-14T13:19:57.576Z,1.90
2023-05-14T13:30:23.559Z,2.60
2023-05-14T13:40:49.505Z,2.50
2023-05-14T13:51:15.515Z,2.20
2023-05-14T14:01:43.397Z,2.10
2023-05-14T14:12:11.118Z,2.40
2023-05-14T14:22:37.004Z,2.10
2023-05-14T14:33:03.214Z,2.10
2023-05-14T14:43:29.645Z,3.00
2023-05-14T14:53:55.386Z,2.70
2023-05-14T15:04:22.016Z,2.20
2023-05-14T15:14:47.666Z,3.30
2023-05-14T15:25:13.887Z,2.80
2023-05-14T15:35:39.702Z,2.80
2023-05-14T15:46:05.447Z,3.20
2023-05-14T16:07:15.085Z,2.10
2023-05-14T16:17:41.061Z,3.10
2023-05-14T16:28:08.027Z,2.80
2023-05-14T16:38:33.996Z,3.70
2023-05-14T16:49:00.560Z,4.30
2023-05-14T16:59:26.562Z,2.40
2023-05-14T17:09:52.341Z,4.10
2023-05-14T17:20:18.180Z,3.80
2023-05-14T17:30:44.090Z,4.30
2023-05-14T17:41:09.961Z,9.10
2023-05-14T17:51:35.845Z,9.10
2023-05-14T18:02:01.956Z,9.30
2023-05-14T18:12:27.846Z,8.60
2023-05-14T18:22:53.806Z,8.30
2023-05-14T18:33:19.340Z,10.40
2023-05-14T18:43:45.054Z,8.70
2023-05-14T18:54:10.844Z,9.30
2023-05-14T19:04:50.605Z,10.20
2023-05-14T19:15:19.703Z,11.20
2023-05-14T19:25:45.924Z,9.20
2023-05-14T19:36:12.036Z,12.30
2023-05-14T19:46:38.148Z,10.10
2023-05-14T19:57:04.182Z,12.10
2023-05-14T20:07:30.318Z,12.70
2023-05-14T20:17:56.464Z,13.40
2023-05-14T20:28:21.931Z,17.80
2023-05-14T20:38:47.916Z,10.90
2023-05-14T20:49:13.914Z,10.30
2023-05-14T20:59:40.053Z,9.00
2023-05-14T21:10:06.504Z,7.70
2023-05-14T21:20:32.232Z,8.80
2023-05-14T21:30:58.193Z,7.80
2023-05-14T21:41:23.545Z,9.90
2023-05-14T21:51:53.046Z,7.80
2023-05-14T22:02:18.847Z,10.60
2023-05-14T22:12:46.166Z,13.50
2023-05-14T22:23:12.107Z,13.00
2023-05-14T22:33:37.976Z,11.50
2023-05-14T22:44:03.865Z,9.80
2023-05-14T22:54:29.857Z,11.10
2023-05-14T23:04:55.881Z,8.50
2023-05-14T23:15:21.715Z,9.70
2023-05-14T23:25:51.061Z,9.10
2023-05-14T23:36:16.778Z,8.90
2023-05-14T23:46:42.866Z,13.00
2023-05-14T23:57:09.435Z,9.20
